Beech Mountain, North Carolina
Current Conditions -  °F | °C
As of 11:55 AM on Saturday 22 Nov 2014 (Local Time) from KTNB Reporting Station
Clear Clear  
Wind Chill: 40°   Ceiling: Unl
Heat Index: 45°   Visibility: 10mi
Dew Point: 13°   Wind: 9mph
Humidity: 27%   Direction: 160°SSE
Pressure: 30.39"   Gusts: NA
Location:  36.1797°N, 81.8424°W
Report Text: KTNB 221655Z AUTO 16008KT 120V190 10SM CLR 07/M11 A3039 RMK AO2 T00721108
Loading
Personal Weather Stations






























Interactive Weather Map New forecast layout! Learn more

10-Day Weather Forecast

Advertisements
Track Severe Weather on mobile